createdAt,value
2022-10-23T00:03:58.557Z,19.36
2022-10-23T00:09:02.132Z,19.39
2022-10-23T00:14:08.035Z,19.40
2022-10-23T00:19:12.906Z,19.41
2022-10-23T00:24:16.376Z,19.39
2022-10-23T00:29:19.759Z,19.40
2022-10-23T00:34:24.926Z,19.47
2022-10-23T00:39:28.313Z,19.48
2022-10-23T00:45:10.443Z,19.55
2022-10-23T00:50:15.446Z,19.51
2022-10-23T00:55:20.616Z,19.59
2022-10-23T01:00:26.612Z,19.47
2022-10-23T01:05:33.797Z,19.68
2022-10-23T01:10:41.538Z,19.65
2022-10-23T01:15:52.860Z,19.70
2022-10-23T01:21:01.015Z,19.68
2022-10-23T01:26:16.630Z,19.77
2022-10-23T01:31:26.010Z,19.63
2022-10-23T01:36:30.435Z,19.67
2022-10-23T01:41:39.314Z,19.73
2022-10-23T01:46:45.235Z,19.75
2022-10-23T01:51:51.947Z,19.73
2022-10-23T01:56:55.632Z,19.70
2022-10-23T02:02:04.781Z,19.65
2022-10-23T02:07:08.512Z,19.57
2022-10-23T02:12:15.320Z,19.45
2022-10-23T02:17:25.445Z,19.35
2022-10-23T02:22:31.928Z,19.26
2022-10-23T02:27:38.940Z,19.18
2022-10-23T02:32:48.765Z,19.05
2022-10-23T02:37:54.470Z,19.01
2022-10-23T02:43:04.129Z,18.96
2022-10-23T02:48:14.510Z,18.92
2022-10-23T02:53:24.979Z,18.85
2022-10-23T02:58:30.467Z,18.74
2022-10-23T03:03:39.464Z,18.70
2022-10-23T03:08:44.272Z,18.72
2022-10-23T03:13:47.703Z,18.65
2022-10-23T03:18:52.623Z,18.59
2022-10-23T03:23:56.083Z,18.57
2022-10-23T03:29:06.884Z,18.42
2022-10-23T03:34:19.333Z,18.33
2022-10-23T03:39:23.282Z,18.27
2022-10-23T03:44:26.733Z,18.20
2022-10-23T03:49:31.950Z,18.15
2022-10-23T03:54:40.592Z,17.98
2022-10-23T03:59:43.991Z,17.98
2022-10-23T04:04:48.836Z,17.91
2022-10-23T04:09:52.452Z,17.87
2022-10-23T04:14:55.868Z,17.87
2022-10-23T04:20:00.715Z,17.82
2022-10-23T04:25:04.466Z,17.71
2022-10-23T04:30:10.601Z,17.66
2022-10-23T04:35:16.692Z,17.59
2022-10-23T04:40:20.123Z,17.54
2022-10-23T04:45:23.929Z,17.49
2022-10-23T04:50:28.882Z,17.45
2022-10-23T04:55:51.666Z,17.59
2022-10-23T05:01:03.177Z,17.71
2022-10-23T05:06:08.874Z,17.78
2022-10-23T05:11:26.014Z,17.75
2022-10-23T05:16:37.413Z,17.86
2022-10-23T05:21:42.612Z,17.91
2022-10-23T05:26:46.194Z,17.94
2022-10-23T05:31:52.114Z,17.93
2022-10-23T05:36:57.953Z,18.01
2022-10-23T05:42:01.488Z,17.98
2022-10-23T05:47:05.098Z,17.95
2022-10-23T05:52:28.543Z,17.89
2022-10-23T05:57:52.254Z,17.87
2022-10-23T06:03:06.531Z,17.94
2022-10-23T06:08:17.981Z,18.05
2022-10-23T06:13:23.903Z,18.10
2022-10-23T06:18:27.639Z,18.14
2022-10-23T06:23:48.235Z,18.23
2022-10-23T06:29:03.667Z,18.26
2022-10-23T06:34:07.143Z,18.35
2022-10-23T06:39:12.097Z,18.47
2022-10-23T06:44:35.013Z,18.49
2022-10-23T06:49:45.358Z,18.54
2022-10-23T06:54:50.217Z,18.68
2022-10-23T07:00:01.182Z,18.88
2022-10-23T07:05:09.949Z,18.89
2022-10-23T07:10:18.557Z,19.15
2022-10-23T07:15:27.666Z,19.25
2022-10-23T07:20:31.423Z,19.35
2022-10-23T07:25:37.186Z,19.45
2022-10-23T07:30:42.889Z,19.61
2022-10-23T07:35:48.449Z,19.79
2022-10-23T07:41:01.062Z,20.08
2022-10-23T07:46:04.687Z,20.25
2022-10-23T07:51:15.350Z,20.56
2022-10-23T07:56:29.728Z,20.62
2022-10-23T08:01:51.457Z,20.91
2022-10-23T08:06:57.979Z,20.83
2022-10-23T08:12:03.903Z,21.11
2022-10-23T08:17:09.575Z,21.26
2022-10-23T08:22:39.443Z,21.27
2022-10-23T08:27:45.246Z,21.48
2022-10-23T08:32:50.587Z,21.75
2022-10-23T08:37:54.118Z,21.92
2022-10-23T08:43:04.580Z,22.11
2022-10-23T08:48:14.438Z,22.16
2022-10-23T08:53:53.890Z,22.43
2022-10-23T08:59:05.217Z,22.78
2022-10-23T09:04:11.326Z,23.05
2022-10-23T09:09:30.264Z,22.93
2022-10-23T09:14:49.984Z,23.03
2022-10-23T09:20:07.206Z,23.14
2022-10-23T09:25:12.014Z,23.33
2022-10-23T09:30:31.885Z,23.31
2022-10-23T09:35:35.230Z,23.46
2022-10-23T09:40:42.134Z,23.62
2022-10-23T09:45:58.377Z,23.72
2022-10-23T09:51:04.409Z,23.67
2022-10-23T09:56:24.636Z,23.88
2022-10-23T10:01:33.611Z,24.01
2022-10-23T10:07:03.669Z,24.23
2022-10-23T10:12:19.314Z,24.22
2022-10-23T10:17:35.751Z,24.18
2022-10-23T10:22:41.816Z,24.29
2022-10-23T10:27:53.948Z,24.39
2022-10-23T10:33:03.882Z,24.48
2022-10-23T10:38:19.372Z,24.62
2022-10-23T10:43:30.351Z,24.96
2022-10-23T10:48:47.331Z,25.07
2022-10-23T10:54:18.565Z,25.16
2022-10-23T10:59:24.614Z,25.14
2022-10-23T11:04:35.189Z,25.36
2022-10-23T11:09:39.516Z,25.54
2022-10-23T11:14:43.679Z,25.56
2022-10-23T11:19:50.386Z,25.59
2022-10-23T11:25:19.219Z,25.75
2022-10-23T11:30:25.026Z,25.93
2022-10-23T11:35:43.742Z,26.11
2022-10-23T11:40:52.111Z,26.43
2022-10-23T11:45:55.726Z,26.58
2022-10-23T11:51:04.245Z,26.52
2022-10-23T11:56:27.361Z,26.93
2022-10-23T12:01:37.383Z,26.73
2022-10-23T12:06:43.740Z,26.98
2022-10-23T12:11:51.231Z,27.15
2022-10-23T12:16:54.862Z,27.26
2022-10-23T12:22:02.230Z,27.11
2022-10-23T12:27:15.943Z,27.12
2022-10-23T12:32:40.450Z,27.11
2022-10-23T12:37:55.882Z,27.10
2022-10-23T12:43:00.411Z,27.29
2022-10-23T12:48:03.926Z,27.17
2022-10-23T12:53:16.422Z,27.15
2022-10-23T12:58:21.316Z,27.10
2022-10-23T13:03:27.256Z,26.88
2022-10-23T13:08:35.301Z,26.93
2022-10-23T13:13:56.995Z,26.76
2022-10-23T13:19:00.385Z,26.91
2022-10-23T13:24:05.601Z,26.97
2022-10-23T13:29:20.614Z,26.90
2022-10-23T13:34:26.511Z,26.70
2022-10-23T13:39:33.851Z,26.65
2022-10-23T13:44:37.969Z,26.60
2022-10-23T13:49:41.341Z,26.54
2022-10-23T13:54:46.359Z,26.47
2022-10-23T13:59:49.719Z,26.20
2022-10-23T14:04:53.120Z,26.26
2022-10-23T14:09:57.868Z,26.28
2022-10-23T14:15:01.199Z,26.12
2022-10-23T14:20:06.294Z,25.98
2022-10-23T14:25:11.366Z,25.89
2022-10-23T14:30:15.103Z,25.89
2022-10-23T14:35:18.479Z,25.80
2022-10-23T14:40:23.147Z,25.84
2022-10-23T14:45:26.555Z,25.78
2022-10-23T14:50:30.747Z,25.73
2022-10-23T14:55:35.511Z,25.51
2022-10-23T15:00:39.292Z,25.62
2022-10-23T15:05:43.265Z,25.56
2022-10-23T15:10:47.981Z,25.43
2022-10-23T15:15:51.351Z,25.40
2022-10-23T15:20:54.739Z,25.22
2022-10-23T15:26:00.339Z,25.14
2022-10-23T15:31:04.043Z,25.34
2022-10-23T15:36:07.742Z,25.36
2022-10-23T15:41:17.463Z,25.22
2022-10-23T15:46:20.790Z,25.16
2022-10-23T15:51:24.134Z,24.99
2022-10-23T15:56:28.942Z,24.87
2022-10-23T16:01:32.363Z,24.68
2022-10-23T16:06:35.991Z,24.67
2022-10-23T16:11:41.491Z,24.51
2022-10-23T16:16:44.974Z,24.31
2022-10-23T16:21:48.323Z,24.32
2022-10-23T16:26:56.245Z,24.20
2022-10-23T16:32:00.093Z,24.06
2022-10-23T16:37:03.443Z,24.01
2022-10-23T16:42:24.078Z,24.01
2022-10-23T16:47:39.320Z,23.94
2022-10-23T16:52:43.029Z,23.85
2022-10-23T16:57:48.057Z,23.85
2022-10-23T17:02:51.458Z,23.66
2022-10-23T17:07:54.844Z,23.68
2022-10-23T17:12:59.609Z,23.52
2022-10-23T17:18:03.001Z,23.53
2022-10-23T17:23:06.440Z,23.63
2022-10-23T17:28:11.255Z,23.57
2022-10-23T17:33:14.959Z,23.62
2022-10-23T17:38:19.104Z,23.59
2022-10-23T17:43:23.851Z,23.53
2022-10-23T17:48:27.611Z,23.77
2022-10-23T17:53:31.351Z,23.74
2022-10-23T17:58:36.747Z,23.84
2022-10-23T18:03:41.350Z,23.91
2022-10-23T18:08:45.319Z,23.85
2022-10-23T18:13:50.612Z,23.87
2022-10-23T18:18:54.227Z,23.62
2022-10-23T18:23:59.578Z,23.59
2022-10-23T18:29:07.420Z,23.72
2022-10-23T18:34:15.819Z,23.54
2022-10-23T18:39:22.361Z,23.57
2022-10-23T18:44:28.955Z,23.66
2022-10-23T18:49:32.301Z,23.58
2022-10-23T18:54:35.702Z,23.41
2022-10-23T18:59:40.450Z,23.39
2022-10-23T19:04:43.794Z,23.37
2022-10-23T19:09:47.220Z,23.09
2022-10-23T19:14:52.186Z,23.09
2022-10-23T19:19:57.058Z,22.94
2022-10-23T19:25:07.359Z,23.08
2022-10-23T19:30:13.722Z,22.79
2022-10-23T19:35:19.572Z,22.64
2022-10-23T19:40:24.189Z,22.67
2022-10-23T19:45:28.993Z,22.71
2022-10-23T19:50:32.485Z,22.79
2022-10-23T19:55:35.869Z,22.51
2022-10-23T20:00:40.591Z,22.69
2022-10-23T20:05:45.515Z,22.73
2022-10-23T20:10:48.979Z,22.74
2022-10-23T20:15:53.682Z,22.71
2022-10-23T20:20:57.094Z,22.55
2022-10-23T20:26:07.863Z,22.43
2022-10-23T20:31:12.666Z,22.48
2022-10-23T20:36:25.105Z,22.27
2022-10-23T20:41:28.980Z,22.05
2022-10-23T20:46:33.983Z,22.15
2022-10-23T20:51:37.651Z,22.02
2022-10-23T20:56:41.062Z,21.92
2022-10-23T21:01:49.482Z,22.17
2022-10-23T21:07:11.167Z,22.18
2022-10-23T21:12:14.948Z,22.25
2022-10-23T21:17:19.693Z,22.39
2022-10-23T21:22:23.087Z,22.25
2022-10-23T21:27:27.003Z,22.36
2022-10-23T21:32:31.661Z,22.25
2022-10-23T21:37:34.999Z,22.13
2022-10-23T21:42:38.368Z,22.01
2022-10-23T21:47:43.366Z,21.72
2022-10-23T21:52:51.385Z,21.94
2022-10-23T21:57:54.738Z,21.99
2022-10-23T22:02:59.435Z,22.02
2022-10-23T22:08:02.810Z,21.95
2022-10-23T22:13:06.165Z,21.88
2022-10-23T22:18:10.873Z,21.79
2022-10-23T22:23:14.214Z,21.80
2022-10-23T22:28:17.849Z,21.70
2022-10-23T22:33:22.642Z,21.29
2022-10-23T22:38:26.014Z,21.35
2022-10-23T22:43:29.838Z,21.41
2022-10-23T22:48:34.650Z,21.55
2022-10-23T22:53:38.183Z,21.53
2022-10-23T22:58:41.631Z,21.60
2022-10-23T23:03:46.895Z,21.69
2022-10-23T23:08:51.017Z,21.55
2022-10-23T23:13:54.459Z,21.45
2022-10-23T23:19:01.106Z,21.43
2022-10-23T23:24:04.901Z,21.23
2022-10-23T23:29:08.223Z,21.50
2022-10-23T23:34:12.962Z,21.29
2022-10-23T23:39:16.328Z,21.45
2022-10-23T23:44:19.729Z,21.20
2022-10-23T23:49:24.839Z,21.36
2022-10-23T23:54:28.331Z,21.38
2022-10-23T23:59:31.678Z,21.46
